Time;durP1;ratioP1;P1;durP2;ratioP2;P2;SDS_P1;SDS_P2;PMS_P1;PMS_P2;Temp;Humidity;BMP_temperature;BMP_pressure;BME280_temperature;BME280_humidity;BME280_pressure;Samples;Min_cycle;Max_cycle;Signal;HPM_P1;HPM_P2
2022/08/26 00:00:45;;;;;;;82.60;73.53;;;21.10;99.90;;;;;;5082892;28;20480;-67
2022/08/26 00:03:13;;;;;;;83.27;74.03;;;21.20;99.90;;;;;;5078938;28;20469;-68
2022/08/26 00:05:41;;;;;;;92.27;77.43;;;21.10;99.90;;;;;;5078147;28;20826;-67
2022/08/26 00:08:09;;;;;;;96.33;84.00;;;21.00;99.90;;;;;;5077393;28;20467;-67
2022/08/26 00:10:37;;;;;;;93.60;79.17;;;21.00;99.90;;;;;;5083680;28;20596;-67
2022/08/26 00:13:04;;;;;;;97.60;82.27;;;20.90;99.90;;;;;;5078265;28;20454;-67
2022/08/26 00:15:33;;;;;;;107.77;85.20;;;20.90;99.90;;;;;;5082073;28;20485;-66
2022/08/26 00:17:59;;;;;;;99.40;81.60;;;20.90;99.90;;;;;;5083135;28;20972;-68
2022/08/26 00:20:30;;;;;;;93.10;80.33;;;20.90;99.90;;;;;;5084374;28;20907;-67
2022/08/26 00:22:57;;;;;;;97.50;80.13;;;20.90;99.90;;;;;;5083839;28;20713;-67
2022/08/26 00:25:25;;;;;;;92.17;79.20;;;20.90;99.90;;;;;;5082542;28;20865;-67
2022/08/26 00:27:53;;;;;;;99.70;79.60;;;20.80;99.90;;;;;;5077994;28;20459;-67
2022/08/26 00:30:24;;;;;;;90.10;73.73;;;20.80;99.90;;;;;;5080866;28;20800;-67
2022/08/26 00:32:53;;;;;;;88.50;78.07;;;20.70;99.90;;;;;;5077681;28;20451;-66
2022/08/26 00:35:20;;;;;;;88.80;75.03;;;20.70;99.90;;;;;;5079322;28;20459;-65
2022/08/26 00:37:47;;;;;;;95.60;80.03;;;20.70;99.90;;;;;;5077933;28;20494;-67
2022/08/26 00:40:18;;;;;;;92.43;77.20;;;20.60;99.90;;;;;;5085418;28;21003;-67
2022/08/26 00:42:45;;;;;;;99.93;77.07;;;20.70;99.90;;;;;;5078277;28;20462;-66
2022/08/26 00:45:14;;;;;;;91.60;73.70;;;20.70;99.90;;;;;;5079104;28;20469;-67
2022/08/26 00:47:46;;;;;;;83.77;71.03;;;20.60;99.90;;;;;;5080380;28;20463;-67
2022/08/26 00:50:18;;;;;;;85.87;67.87;;;20.60;99.90;;;;;;5073274;28;20467;-68
2022/08/26 00:52:46;;;;;;;86.57;70.17;;;20.60;99.90;;;;;;5083601;28;20445;-68
2022/08/26 00:55:17;;;;;;;85.60;69.23;;;20.60;99.90;;;;;;5082406;28;20509;-68
2022/08/26 00:57:45;;;;;;;79.33;67.57;;;20.50;99.90;;;;;;5079412;28;20908;-67
2022/08/26 01:00:17;;;;;;;79.73;68.20;;;20.60;99.90;;;;;;5080362;28;20450;-67
2022/08/26 01:02:45;;;;;;;83.87;68.70;;;20.60;99.90;;;;;;5080282;28;20462;-66
2022/08/26 01:05:14;;;;;;;74.60;64.67;;;20.60;99.90;;;;;;5072169;28;20454;-67
2022/08/26 01:07:41;;;;;;;76.53;62.50;;;20.60;99.90;;;;;;5079764;28;20938;-67
2022/08/26 01:10:12;;;;;;;80.10;63.87;;;20.50;99.90;;;;;;5078719;28;20842;-68
2022/08/26 01:12:42;;;;;;;71.07;63.27;;;20.50;99.90;;;;;;5080489;28;21177;-66
2022/08/26 01:15:12;;;;;;;79.47;62.33;;;20.40;99.90;;;;;;5077339;28;20871;-66
2022/08/26 01:17:42;;;;;;;77.03;63.27;;;20.40;99.90;;;;;;5078716;28;21018;-67
2022/08/26 01:20:18;;;;;;;74.03;59.00;;;20.40;99.90;;;;;;5077715;28;20550;-67
2022/08/26 01:22:55;;;;;;;70.90;58.47;;;20.40;99.90;;;;;;5070185;28;20482;-67
2022/08/26 01:25:24;;;;;;;73.87;59.40;;;20.30;99.90;;;;;;5075706;28;20479;-66
2022/08/26 01:27:52;;;;;;;73.63;57.57;;;20.30;99.90;;;;;;5081886;28;20454;-67
2022/08/26 01:30:20;;;;;;;78.10;56.00;;;20.30;99.90;;;;;;5077887;28;20454;-67
2022/08/26 01:32:48;;;;;;;71.40;57.13;;;20.30;99.90;;;;;;5074652;28;20462;-67
2022/08/26 01:35:15;;;;;;;63.63;53.30;;;20.30;99.90;;;;;;5075727;28;20458;-68
2022/08/26 01:37:42;;;;;;;65.67;53.77;;;20.30;99.90;;;;;;5074029;28;21072;-68
2022/08/26 01:40:16;;;;;;;67.93;52.63;;;20.40;99.90;;;;;;5078001;28;20811;-68
2022/08/26 01:42:44;;;;;;;68.97;51.80;;;20.30;99.90;;;;;;5083219;28;20862;-68
2022/08/26 01:45:14;;;;;;;61.63;51.27;;;20.40;99.90;;;;;;5077098;28;20956;-67
2022/08/26 01:47:42;;;;;;;62.93;54.33;;;20.50;99.90;;;;;;5075718;28;20466;-66
2022/08/26 01:50:14;;;;;;;62.43;52.23;;;20.50;99.90;;;;;;5070592;28;20467;-68
2022/08/26 01:52:44;;;;;;;58.83;50.30;;;20.60;99.90;;;;;;5078550;28;20465;-68
2022/08/26 01:55:15;;;;;;;61.97;49.47;;;20.70;99.90;;;;;;5068416;28;21023;-66
2022/08/26 01:57:43;;;;;;;59.27;47.23;;;20.70;99.90;;;;;;5082773;28;20493;-67
2022/08/26 02:00:13;;;;;;;61.27;46.70;;;20.80;99.90;;;;;;5077090;28;20989;-68
2022/08/26 02:02:41;;;;;;;58.50;46.40;;;20.70;99.90;;;;;;5081020;28;20553;-67
2022/08/26 02:05:10;;;;;;;51.23;43.47;;;20.70;99.90;;;;;;5080688;28;20474;-67
2022/08/26 02:07:39;;;;;;;50.23;44.70;;;20.70;99.90;;;;;;5081363;28;20462;-67
2022/08/26 02:10:07;;;;;;;51.10;41.87;;;20.70;99.90;;;;;;5083370;28;20468;-68
2022/08/26 02:12:36;;;;;;;53.37;41.47;;;20.80;99.90;;;;;;5079606;28;20477;-68
2022/08/26 02:15:08;;;;;;;51.87;41.13;;;20.70;99.90;;;;;;5074364;28;20462;-66
2022/08/26 02:17:38;;;;;;;54.23;41.60;;;20.70;99.90;;;;;;5079314;28;20491;-67
2022/08/26 02:20:07;;;;;;;47.00;38.70;;;20.70;99.90;;;;;;5084644;28;20663;-68
2022/08/26 02:22:35;;;;;;;51.70;39.80;;;20.70;99.90;;;;;;5084184;28;20508;-67
2022/08/26 02:25:16;;;;;;;61.73;40.87;;;20.70;99.90;;;;;;5081318;28;20457;-67
2022/08/26 02:27:48;;;;;;;50.23;41.00;;;20.70;99.90;;;;;;5079914;28;20489;-66
2022/08/26 02:30:18;;;;;;;46.53;39.63;;;20.70;99.90;;;;;;5077712;28;20463;-68
2022/08/26 02:32:45;;;;;;;45.73;37.33;;;20.70;99.90;;;;;;5077513;28;20458;-67
2022/08/26 02:35:14;;;;;;;45.43;36.53;;;20.80;99.90;;;;;;5081602;28;20871;-67
2022/08/26 02:37:43;;;;;;;47.73;38.90;;;20.70;99.90;;;;;;5080788;28;20489;-66
2022/08/26 02:40:13;;;;;;;42.00;36.47;;;20.70;99.90;;;;;;5076852;28;20544;-67
2022/08/26 02:42:40;;;;;;;47.77;37.57;;;20.60;99.90;;;;;;5082969;28;20469;-67
2022/08/26 02:45:10;;;;;;;44.03;34.13;;;20.70;99.90;;;;;;5085826;28;20461;-67
2022/08/26 02:47:38;;;;;;;50.07;35.80;;;20.80;99.90;;;;;;5082764;28;20573;-67
2022/08/26 02:50:05;;;;;;;37.80;33.80;;;20.70;99.90;;;;;;5079684;28;20455;-67
2022/08/26 02:52:32;;;;;;;39.23;34.67;;;20.70;99.90;;;;;;5084239;28;21126;-68
2022/08/26 02:54:59;;;;;;;37.17;32.77;;;20.70;99.90;;;;;;5077843;28;20469;-68
2022/08/26 02:57:26;;;;;;;41.90;33.00;;;20.80;99.90;;;;;;5073415;28;20482;-66
2022/08/26 02:59:53;;;;;;;44.03;33.20;;;20.90;99.90;;;;;;5080210;28;20454;-67
2022/08/26 03:02:22;;;;;;;38.60;32.17;;;20.90;99.90;;;;;;5083418;28;20837;-68
2022/08/26 03:04:49;;;;;;;42.83;32.53;;;20.80;99.90;;;;;;5077276;28;20476;-67
2022/08/26 03:07:18;;;;;;;44.60;33.70;;;20.80;99.90;;;;;;5080676;28;20905;-67
2022/08/26 03:09:45;;;;;;;36.23;30.87;;;20.80;99.90;;;;;;5078456;28;20459;-67
2022/08/26 03:12:12;;;;;;;35.40;30.77;;;20.90;99.90;;;;;;5081988;28;20457;-66
2022/08/26 03:14:40;;;;;;;39.90;32.00;;;20.80;99.90;;;;;;5076261;28;20481;-67
2022/08/26 03:17:06;;;;;;;37.87;29.60;;;20.90;99.90;;;;;;5061636;28;20494;-68
2022/08/26 03:19:36;;;;;;;36.43;31.30;;;20.90;99.90;;;;;;5062011;28;20923;-68
2022/08/26 03:22:03;;;;;;;32.20;28.77;;;20.90;99.90;;;;;;5060655;28;20470;-68
2022/08/26 03:24:30;;;;;;;39.77;29.77;;;20.90;99.90;;;;;;5057686;28;20451;-66
2022/08/26 03:26:57;;;;;;;33.40;29.00;;;20.90;99.90;;;;;;5054737;28;20459;-67
2022/08/26 03:32:10;;;;;;;30.73;27.47;;;20.80;99.90;;;;;;5053793;28;20466;-65
2022/08/26 03:34:39;;;;;;;31.03;27.70;;;20.90;99.90;;;;;;5056114;28;20830;-67
2022/08/26 03:37:06;;;;;;;29.70;26.27;;;20.80;99.90;;;;;;5062669;28;20483;-66
2022/08/26 03:39:33;;;;;;;28.60;25.50;;;20.80;99.90;;;;;;5048880;28;20976;-67
2022/08/26 03:42:00;;;;;;;28.83;25.70;;;20.90;99.90;;;;;;5065407;28;20451;-65
2022/08/26 03:44:28;;;;;;;28.80;24.30;;;20.80;99.90;;;;;;5060245;28;20802;-67
2022/08/26 03:46:55;;;;;;;32.77;24.07;;;20.80;99.90;;;;;;5053397;28;20463;-67
2022/08/26 03:49:22;;;;;;;36.13;23.80;;;20.80;99.90;;;;;;5060657;28;20467;-67
2022/08/26 03:51:51;;;;;;;29.10;24.37;;;20.90;99.90;;;;;;5063115;28;20708;-68
2022/08/26 03:54:18;;;;;;;25.43;22.43;;;20.80;99.90;;;;;;5059725;28;20455;-67
2022/08/26 03:56:44;;;;;;;25.97;22.00;;;20.80;99.90;;;;;;5054574;28;20474;-67
2022/08/26 03:59:11;;;;;;;27.10;22.90;;;20.80;99.90;;;;;;5056681;28;20474;-67
2022/08/26 04:01:39;;;;;;;25.93;21.50;;;20.80;99.90;;;;;;5058779;28;20490;-66
2022/08/26 04:04:06;;;;;;;25.07;21.47;;;20.80;99.90;;;;;;5026870;28;20466;-67
2022/08/26 04:06:35;;;;;;;24.20;20.80;;;20.80;99.90;;;;;;5026962;28;20491;-67
2022/08/26 04:09:06;;;;;;;25.87;21.13;;;20.80;99.90;;;;;;5028445;28;20472;-68
2022/08/26 04:11:34;;;;;;;27.83;21.00;;;20.80;99.90;;;;;;5028691;28;20697;-68
2022/08/26 04:14:03;;;;;;;28.90;21.90;;;20.70;99.90;;;;;;5027020;28;20922;-67
2022/08/26 04:16:31;;;;;;;25.80;19.03;;;20.80;99.90;;;;;;5028649;28;20483;-67
2022/08/26 04:18:58;;;;;;;26.20;20.90;;;20.70;99.90;;;;;;5028242;28;20502;-68
2022/08/26 04:21:26;;;;;;;26.37;19.13;;;20.70;99.90;;;;;;5027128;28;21057;-67
2022/08/26 04:23:53;;;;;;;21.30;19.10;;;20.70;99.90;;;;;;5028783;28;20908;-68
2022/08/26 04:26:23;;;;;;;22.23;17.93;;;20.70;99.90;;;;;;5027299;28;20456;-68
2022/08/26 04:28:52;;;;;;;23.53;18.43;;;20.70;99.90;;;;;;5025540;28;21005;-68
2022/08/26 04:31:20;;;;;;;23.60;17.67;;;20.80;99.90;;;;;;5026502;28;20476;-67
2022/08/26 04:33:48;;;;;;;26.77;17.70;;;20.70;99.90;;;;;;5027167;28;21513;-66
2022/08/26 04:36:16;;;;;;;20.60;17.57;;;20.70;99.90;;;;;;5028048;28;20474;-68
2022/08/26 04:38:43;;;;;;;17.90;16.13;;;20.70;99.90;;;;;;5027954;28;22486;-68
2022/08/26 04:41:11;;;;;;;21.93;17.50;;;20.80;99.90;;;;;;5027796;28;20456;-68
2022/08/26 04:43:40;;;;;;;18.50;16.73;;;20.80;99.90;;;;;;5030347;28;20513;-67
2022/08/26 04:46:08;;;;;;;23.07;16.90;;;20.70;99.90;;;;;;5029607;28;20489;-68
2022/08/26 04:48:35;;;;;;;26.33;16.97;;;20.70;99.90;;;;;;5030168;28;20511;-68
2022/08/26 04:51:03;;;;;;;17.13;15.40;;;20.80;99.90;;;;;;5029834;28;20459;-68
2022/08/26 04:53:30;;;;;;;18.50;16.17;;;20.80;99.90;;;;;;5028153;28;20865;-68
2022/08/26 04:55:57;;;;;;;18.73;16.07;;;20.80;99.90;;;;;;5029159;28;20491;-68
2022/08/26 04:58:25;;;;;;;17.50;15.03;;;20.80;99.90;;;;;;5027437;28;20498;-68
2022/08/26 05:00:55;;;;;;;15.97;14.57;;;20.80;99.90;;;;;;5028515;28;20827;-67
2022/08/26 05:03:23;;;;;;;16.07;14.70;;;20.90;99.90;;;;;;5029871;28;20459;-68
2022/08/26 05:05:51;;;;;;;16.30;14.70;;;20.90;99.90;;;;;;5043046;28;20463;-68
2022/08/26 05:08:19;;;;;;;18.03;16.40;;;20.80;99.90;;;;;;5060445;28;20546;-67
2022/08/26 05:10:48;;;;;;;16.80;14.27;;;20.80;99.90;;;;;;5058860;28;20459;-67
2022/08/26 05:13:17;;;;;;;14.93;13.50;;;20.90;99.90;;;;;;5030140;28;20533;-68
2022/08/26 05:15:45;;;;;;;20.97;14.90;;;21.00;99.90;;;;;;5029248;28;20491;-68
2022/08/26 05:18:15;;;;;;;16.17;14.70;;;21.10;99.90;;;;;;5028130;28;21350;-67
2022/08/26 05:20:43;;;;;;;17.70;14.30;;;21.10;99.90;;;;;;5028603;28;20570;-67
2022/08/26 05:23:10;;;;;;;15.40;13.90;;;21.10;99.90;;;;;;5028759;28;20456;-67
2022/08/26 05:25:40;;;;;;;16.47;13.00;;;21.00;99.90;;;;;;5028246;28;20472;-68
2022/08/26 05:28:07;;;;;;;18.80;13.30;;;21.00;99.90;;;;;;5028725;28;20463;-67
2022/08/26 05:30:34;;;;;;;14.83;13.40;;;21.00;99.90;;;;;;5029067;28;20472;-69
2022/08/26 05:33:01;;;;;;;16.60;14.37;;;21.10;99.90;;;;;;5029166;28;20471;-67
2022/08/26 05:35:32;;;;;;;25.67;14.67;;;21.10;99.90;;;;;;5027713;28;20592;-67
2022/08/26 05:37:59;;;;;;;17.40;14.67;;;21.10;99.90;;;;;;5028751;28;20483;-68
2022/08/26 05:40:28;;;;;;;28.97;14.47;;;21.00;99.90;;;;;;5028087;28;20531;-68
2022/08/26 05:42:55;;;;;;;28.30;14.80;;;21.10;99.90;;;;;;5027192;28;20480;-68
2022/08/26 05:45:25;;;;;;;17.20;13.10;;;21.20;99.90;;;;;;5028664;28;20475;-67
2022/08/26 05:47:52;;;;;;;13.87;12.43;;;21.20;99.90;;;;;;5027814;28;20464;-67
2022/08/26 05:50:21;;;;;;;13.87;12.63;;;21.30;99.90;;;;;;5028553;28;20459;-66
2022/08/26 05:52:50;;;;;;;14.37;13.00;;;21.20;99.90;;;;;;5029072;28;20468;-67
2022/08/26 05:55:18;;;;;;;17.23;13.47;;;21.20;99.90;;;;;;5028222;28;20480;-67
2022/08/26 05:57:45;;;;;;;18.57;13.27;;;21.20;99.90;;;;;;5036451;28;20478;-67
2022/08/26 06:00:14;;;;;;;18.93;13.50;;;21.20;99.90;;;;;;5032636;28;20475;-67
2022/08/26 06:02:41;;;;;;;16.50;13.20;;;21.20;99.90;;;;;;5028542;28;20475;-68
2022/08/26 06:05:08;;;;;;;14.87;13.67;;;21.10;99.90;;;;;;5028090;28;20467;-66
2022/08/26 06:10:21;;;;;;;17.47;13.23;;;21.10;99.90;;;;;;5028892;28;20467;-68
2022/08/26 06:12:48;;;;;;;14.00;12.60;;;21.10;99.90;;;;;;5028669;28;20567;-67
2022/08/26 06:15:15;;;;;;;16.40;13.13;;;21.10;99.90;;;;;;5030718;28;20604;-67
2022/08/26 06:17:41;;;;;;;17.80;12.50;;;21.10;99.90;;;;;;5048559;28;20472;-68
2022/08/26 06:20:09;;;;;;;20.57;12.47;;;21.10;99.90;;;;;;5048588;28;20471;-67
2022/08/26 06:25:40;;;;;;;13.30;12.20;;;21.30;99.90;;;;;;5049175;28;20498;-68
2022/08/26 06:28:08;;;;;;;13.90;12.60;;;21.20;99.90;;;;;;5048225;28;20469;-66
2022/08/26 06:30:39;;;;;;;18.97;13.80;;;21.20;99.90;;;;;;5047948;28;20781;-67
2022/08/26 06:33:06;;;;;;;15.03;13.63;;;21.10;99.90;;;;;;5048640;28;20459;-67
2022/08/26 06:35:37;;;;;;;14.63;13.13;;;21.20;99.90;;;;;;5048409;28;20478;-68
2022/08/26 06:38:05;;;;;;;13.23;12.20;;;21.30;99.90;;;;;;5047551;28;20479;-67
2022/08/26 06:40:35;;;;;;;14.30;11.70;;;21.30;99.90;;;;;;5047397;28;20780;-67
2022/08/26 06:43:01;;;;;;;13.47;12.23;;;21.20;99.90;;;;;;5047061;28;20554;-68
2022/08/26 06:45:28;;;;;;;13.50;11.97;;;21.20;99.90;;;;;;5047008;28;20459;-66
2022/08/26 06:47:55;;;;;;;12.23;11.23;;;21.20;99.90;;;;;;5046545;28;20875;-68
2022/08/26 06:50:23;;;;;;;19.97;12.00;;;21.20;99.90;;;;;;5046608;28;20462;-68
2022/08/26 06:52:51;;;;;;;13.20;12.20;;;21.30;99.90;;;;;;5048866;28;20461;-67
2022/08/26 06:55:18;;;;;;;15.27;11.83;;;21.40;99.90;;;;;;5050588;28;20560;-67
2022/08/26 06:57:46;;;;;;;13.13;11.90;;;21.40;99.90;;;;;;5052305;28;20477;-68
2022/08/26 07:00:14;;;;;;;12.47;11.40;;;21.50;99.90;;;;;;5052018;28;20454;-67
2022/08/26 07:02:41;;;;;;;12.60;11.70;;;21.50;99.90;;;;;;5051129;28;20583;-67
2022/08/26 07:05:10;;;;;;;13.40;12.20;;;21.50;99.90;;;;;;5050247;28;20992;-66
2022/08/26 07:07:37;;;;;;;13.77;12.40;;;21.50;99.90;;;;;;5049492;28;20478;-67
2022/08/26 07:10:04;;;;;;;12.83;11.53;;;21.50;99.90;;;;;;5050870;28;20462;-67
2022/08/26 07:12:31;;;;;;;14.40;12.47;;;21.40;99.90;;;;;;5050951;28;20459;-67
2022/08/26 07:14:59;;;;;;;13.07;11.60;;;21.50;99.90;;;;;;5051270;28;20462;-66
2022/08/26 07:17:27;;;;;;;13.70;11.37;;;21.50;99.90;;;;;;5050835;28;20600;-69
2022/08/26 07:19:54;;;;;;;11.83;10.93;;;21.60;99.90;;;;;;5050982;28;20523;-66
2022/08/26 07:22:20;;;;;;;17.07;11.83;;;21.50;99.90;;;;;;5050720;28;20893;-67
2022/08/26 07:24:48;;;;;;;14.23;12.17;;;21.60;99.90;;;;;;5050846;28;20536;-68
2022/08/26 07:27:16;;;;;;;15.90;12.13;;;21.50;99.90;;;;;;5049845;28;20467;-67
2022/08/26 07:29:43;;;;;;;15.03;12.00;;;21.60;99.90;;;;;;5051948;28;20468;-69
2022/08/26 07:32:14;;;;;;;13.40;11.93;;;21.50;99.90;;;;;;5050110;28;20665;-67
2022/08/26 07:34:41;;;;;;;11.63;10.60;;;21.50;99.90;;;;;;5050230;28;20493;-68
2022/08/26 07:37:08;;;;;;;15.60;11.70;;;21.40;99.90;;;;;;5049501;28;20459;-67
2022/08/26 07:39:35;;;;;;;12.97;11.77;;;21.50;99.90;;;;;;5051122;28;20935;-67
2022/08/26 07:42:04;;;;;;;12.43;11.10;;;21.50;99.90;;;;;;5050171;28;21218;-67
2022/08/26 07:44:31;;;;;;;16.53;12.27;;;21.60;99.90;;;;;;5051824;28;20770;-68
2022/08/26 07:46:58;;;;;;;12.33;11.10;;;21.60;99.90;;;;;;5050225;28;20837;-66
2022/08/26 07:49:26;;;;;;;11.83;10.90;;;21.70;99.90;;;;;;5050226;28;20549;-66
2022/08/26 07:51:54;;;;;;;12.57;11.20;;;21.70;99.90;;;;;;5051847;28;20467;-68
2022/08/26 07:54:22;;;;;;;14.87;13.37;;;21.70;99.90;;;;;;5059106;28;20829;-67
2022/08/26 07:56:49;;;;;;;14.53;12.90;;;21.70;99.90;;;;;;5077460;28;20490;-67
2022/08/26 07:59:17;;;;;;;14.93;11.83;;;21.80;99.90;;;;;;5077546;28;20489;-69
2022/08/26 08:01:44;;;;;;;13.07;11.40;;;21.80;99.90;;;;;;5074660;28;20467;-68
2022/08/26 08:04:11;;;;;;;13.37;12.07;;;21.80;99.90;;;;;;5048930;28;20482;-67
2022/08/26 08:06:40;;;;;;;12.67;11.60;;;21.80;99.90;;;;;;5047750;28;21460;-68
2022/08/26 08:09:07;;;;;;;12.63;11.53;;;21.90;99.90;;;;;;5049893;28;20467;-67
2022/08/26 08:11:34;;;;;;;14.73;13.17;;;21.90;99.90;;;;;;5047246;28;20458;-67
2022/08/26 08:14:01;;;;;;;14.60;13.10;;;22.00;99.90;;;;;;5045617;28;20785;-67
2022/08/26 08:16:29;;;;;;;13.73;12.53;;;22.00;99.90;;;;;;5048693;28;20483;-67
2022/08/26 08:18:56;;;;;;;13.87;12.63;;;22.20;99.90;;;;;;5047835;28;20504;-67
2022/08/26 08:21:25;;;;;;;14.17;13.17;;;22.30;99.90;;;;;;5049574;28;20485;-67
2022/08/26 08:23:55;;;;;;;13.70;12.60;;;22.30;99.90;;;;;;5049252;28;20968;-67
2022/08/26 08:26:24;;;;;;;14.10;13.27;;;22.30;99.90;;;;;;5048197;28;20467;-66
2022/08/26 08:28:54;;;;;;;14.73;13.50;;;22.40;99.90;;;;;;5046911;28;21522;-67
2022/08/26 08:31:21;;;;;;;15.57;14.17;;;22.40;99.90;;;;;;5049883;28;20462;-68
2022/08/26 08:33:48;;;;;;;15.67;13.97;;;22.30;99.90;;;;;;5047865;28;21031;-67
2022/08/26 08:36:15;;;;;;;16.27;14.77;;;22.50;99.90;;;;;;5048261;28;20471;-67
2022/08/26 08:38:43;;;;;;;16.73;15.43;;;22.60;99.90;;;;;;5047619;28;21008;-67
2022/08/26 08:41:40;;;;;;;16.20;14.70;;;22.70;99.90;;;;;;5048150;28;20545;-67
2022/08/26 08:44:11;;;;;;;16.80;15.20;;;22.70;99.90;;;;;;5048338;28;20859;-67
2022/08/26 08:46:39;;;;;;;16.87;15.20;;;22.70;99.90;;;;;;5048336;28;20529;-67
2022/08/26 08:49:06;;;;;;;17.30;15.90;;;23.10;99.90;;;;;;5048618;28;20683;-67
2022/08/26 08:51:39;;;;;;;16.70;15.57;;;23.40;99.90;;;;;;5047177;28;20973;-66
2022/08/26 08:54:07;;;;;;;16.20;15.00;;;23.40;99.90;;;;;;5047804;28;20465;-67
2022/08/26 08:56:39;;;;;;;16.43;14.80;;;23.30;99.90;;;;;;5048453;28;20493;-67
2022/08/26 08:59:15;;;;;;;16.80;15.07;;;23.40;99.90;;;;;;5047942;28;20494;-69
2022/08/26 09:01:51;;;;;;;18.40;14.93;;;23.40;99.90;;;;;;5048704;28;22550;-68
2022/08/26 09:04:43;;;;;;;16.03;14.73;;;23.20;99.90;;;;;;5047373;28;20471;-68
2022/08/26 09:07:15;;;;;;;15.80;14.33;;;23.10;99.90;;;;;;5074828;28;20467;-66
2022/08/26 09:09:46;;;;;;;16.17;14.47;;;23.20;99.90;;;;;;5073078;28;20973;-67
2022/08/26 09:12:20;;;;;;;16.60;15.47;;;23.30;99.90;;;;;;5056389;28;20471;-67
2022/08/26 09:14:48;;;;;;;19.47;15.20;;;23.40;99.90;;;;;;5048633;28;21291;-67
2022/08/26 09:17:23;;;;;;;16.60;15.33;;;23.50;99.90;;;;;;5047217;28;20483;-67
2022/08/26 09:19:53;;;;;;;17.33;15.87;;;23.40;99.90;;;;;;5046457;28;20479;-68
2022/08/26 09:22:31;;;;;;;16.80;15.17;;;23.40;99.90;;;;;;5049099;28;20459;-69
2022/08/26 09:24:58;;;;;;;15.50;14.30;;;23.40;99.90;;;;;;5048494;28;20477;-67
2022/08/26 09:27:41;;;;;;;17.43;14.47;;;23.30;99.90;;;;;;5047936;28;21738;-68
2022/08/26 09:30:09;;;;;;;15.93;14.30;;;23.40;99.90;;;;;;5049016;28;20550;-67
2022/08/26 09:32:37;;;;;;;14.70;13.53;;;23.40;99.90;;;;;;5047755;28;20463;-69
2022/08/26 09:35:07;;;;;;;15.50;14.00;;;23.40;99.90;;;;;;5047588;28;20484;-67
2022/08/26 09:37:38;;;;;;;14.33;13.07;;;23.20;99.90;;;;;;5048697;28;20471;-68
2022/08/26 09:40:31;;;;;;;15.20;13.93;;;23.00;99.90;;;;;;5048373;28;20508;-69
2022/08/26 09:43:14;;;;;;;14.27;13.00;;;23.00;99.90;;;;;;5048664;28;20506;-68
2022/08/26 09:45:45;;;;;;;14.57;13.27;;;22.80;99.90;;;;;;5047641;28;20878;-68
2022/08/26 09:48:26;;;;;;;15.73;14.10;;;22.90;99.90;;;;;;5047690;28;21187;-68
2022/08/26 09:50:55;;;;;;;15.57;13.80;;;22.90;99.90;;;;;;5047724;28;20653;-67
2022/08/26 09:53:26;;;;;;;15.40;13.90;;;23.00;99.90;;;;;;5048248;28;20465;-68
2022/08/26 09:56:12;;;;;;;14.47;13.37;;;23.00;99.90;;;;;;5047813;28;20479;-67
2022/08/26 09:58:43;;;;;;;15.33;13.23;;;23.00;99.90;;;;;;5047471;28;20467;-68
2022/08/26 10:01:17;;;;;;;14.03;13.00;;;23.20;99.90;;;;;;5047745;28;20465;-67
2022/08/26 10:03:44;;;;;;;14.80;13.70;;;23.40;99.90;;;;;;5047356;28;20477;-67
2022/08/26 10:06:25;;;;;;;14.73;13.73;;;23.20;99.90;;;;;;5047907;28;20446;-67
2022/08/26 10:08:54;;;;;;;14.50;13.30;;;23.10;99.90;;;;;;5047753;28;20571;-68
2022/08/26 10:11:37;;;;;;;15.30;14.07;;;23.10;99.90;;;;;;5046873;28;20965;-68
2022/08/26 10:14:12;;;;;;;18.87;13.20;;;23.10;99.90;;;;;;5047991;28;21185;-68
2022/08/26 10:16:48;;;;;;;21.77;13.37;;;23.00;99.90;;;;;;5047759;28;20481;-68
2022/08/26 10:19:19;;;;;;;21.53;12.67;;;22.90;99.90;;;;;;5047544;28;20494;-67
2022/08/26 10:21:51;;;;;;;14.03;12.87;;;22.80;99.90;;;;;;5046937;28;20496;-67
2022/08/26 10:24:23;;;;;;;15.07;13.57;;;22.80;99.90;;;;;;5046879;28;20464;-67
2022/08/26 10:26:59;;;;;;;13.93;12.57;;;22.80;99.90;;;;;;5047186;28;20463;-66
2022/08/26 10:29:35;;;;;;;15.63;13.63;;;22.70;99.90;;;;;;5049402;28;20612;-67
2022/08/26 10:32:11;;;;;;;17.80;13.10;;;22.70;99.90;;;;;;5049899;28;21067;-68
2022/08/26 10:34:38;;;;;;;15.33;14.07;;;22.90;99.90;;;;;;5050704;28;20454;-68
2022/08/26 10:37:12;;;;;;;15.10;13.13;;;23.10;99.90;;;;;;5050204;28;21065;-67
2022/08/26 10:39:45;;;;;;;14.57;13.67;;;23.20;99.90;;;;;;5051068;28;20485;-68
2022/08/26 10:42:20;;;;;;;14.63;13.73;;;23.20;99.90;;;;;;5049818;28;20771;-68
2022/08/26 10:44:52;;;;;;;15.60;14.17;;;23.10;99.90;;;;;;5050462;28;20820;-68
2022/08/26 10:47:24;;;;;;;16.30;14.80;;;23.00;99.90;;;;;;5050612;28;20467;-67
2022/08/26 10:49:53;;;;;;;15.37;14.13;;;23.20;99.90;;;;;;5051041;28;20462;-66
2022/08/26 10:52:28;;;;;;;14.77;13.67;;;23.40;99.90;;;;;;5051383;28;20851;-65
2022/08/26 10:55:10;;;;;;;15.67;14.43;;;23.60;99.90;;;;;;5050181;28;20561;-68
2022/08/26 10:57:46;;;;;;;15.20;13.70;;;23.40;99.90;;;;;;5050267;28;20474;-67
2022/08/26 11:03:13;;;;;;;14.47;13.07;;;23.30;99.90;;;;;;5050495;28;20524;-68
2022/08/26 11:05:40;;;;;;;14.27;13.07;;;23.20;99.90;;;;;;5050029;28;20477;-68
2022/08/26 11:08:29;;;;;;;15.00;13.90;;;23.10;99.90;;;;;;5049060;28;20463;-68
2022/08/26 11:10:58;;;;;;;14.27;13.27;;;23.20;99.90;;;;;;5049294;28;20812;-69
2022/08/26 11:14:03;;;;;;;14.70;13.60;;;23.00;99.90;;;;;;5050109;28;20812;-68
2022/08/26 11:16:37;;;;;;;14.53;13.27;;;22.90;99.90;;;;;;5049834;28;20502;-67
2022/08/26 11:19:05;;;;;;;15.83;13.40;;;22.70;99.90;;;;;;5049408;28;21182;-67
2022/08/26 11:21:51;;;;;;;27.93;13.63;;;22.70;99.90;;;;;;5050569;28;21436;-67
2022/08/26 11:24:40;;;;;;;14.63;13.00;;;22.70;99.90;;;;;;5050766;28;20454;-67
2022/08/26 11:27:09;;;;;;;19.63;13.20;;;22.60;99.90;;;;;;5013058;28;20549;-67
2022/08/26 11:30:02;;;;;;;15.77;13.30;;;22.70;99.90;;;;;;5051244;28;20485;-68
2022/08/26 11:32:49;;;;;;;14.60;13.20;;;22.80;99.90;;;;;;5050849;28;20466;-68
2022/08/26 11:35:53;;;;;;;15.83;13.60;;;22.80;99.90;;;;;;5051034;28;20486;-68
2022/08/26 11:38:27;;;;;;;14.20;13.23;;;22.90;99.90;;;;;;5050385;28;20453;-68
2022/08/26 11:41:05;;;;;;;14.80;13.53;;;23.10;99.90;;;;;;5049132;28;20517;-67
2022/08/26 11:43:33;;;;;;;15.10;13.70;;;23.20;99.90;;;;;;5050466;28;20459;-68
2022/08/26 11:46:03;;;;;;;15.37;13.17;;;23.20;99.90;;;;;;5050568;28;20455;-67
2022/08/26 11:48:34;;;;;;;14.30;13.20;;;23.00;99.90;;;;;;5051759;28;20466;-67
2022/08/26 11:51:03;;;;;;;14.00;13.10;;;23.00;99.90;;;;;;5049008;28;20485;-68
2022/08/26 11:53:32;;;;;;;16.00;14.30;;;23.00;99.90;;;;;;5050363;28;20469;-68
2022/08/26 11:56:02;;;;;;;14.57;13.00;;;23.00;99.90;;;;;;5048596;28;20473;-66
2022/08/26 11:58:30;;;;;;;14.50;13.20;;;23.10;99.90;;;;;;5046366;28;20454;-68
2022/08/26 12:01:01;;;;;;;14.57;13.30;;;23.10;99.90;;;;;;5053757;28;20494;-68
2022/08/26 12:03:39;;;;;;;14.33;13.43;;;23.10;99.90;;;;;;5081190;28;20463;-67
2022/08/26 12:06:13;;;;;;;15.23;13.70;;;23.10;99.90;;;;;;5061521;28;20459;-69
2022/08/26 12:08:42;;;;;;;15.30;13.97;;;23.00;99.90;;;;;;5050354;28;20792;-69
2022/08/26 12:11:12;;;;;;;16.47;14.90;;;23.00;99.90;;;;;;5050825;28;20470;-69
2022/08/26 12:13:41;;;;;;;15.03;13.57;;;22.90;99.90;;;;;;5050968;28;20581;-68
2022/08/26 12:16:08;;;;;;;20.07;13.83;;;23.00;99.90;;;;;;5050340;28;20486;-68
2022/08/26 12:18:36;;;;;;;15.23;13.70;;;23.00;99.90;;;;;;5049538;28;20458;-69
2022/08/26 12:21:14;;;;;;;14.70;13.40;;;23.10;99.90;;;;;;5050225;28;20893;-69
2022/08/26 12:23:45;;;;;;;14.03;13.20;;;23.20;99.90;;;;;;5051252;28;20619;-68
2022/08/26 12:26:21;;;;;;;14.73;13.10;;;23.20;99.90;;;;;;5050379;28;20467;-69
2022/08/26 12:28:54;;;;;;;14.97;13.70;;;23.00;99.90;;;;;;5050529;28;20458;-68
2022/08/26 12:31:25;;;;;;;14.13;13.33;;;23.00;99.90;;;;;;5049051;28;21281;-69
2022/08/26 12:33:53;;;;;;;15.90;14.30;;;23.10;99.90;;;;;;5049224;28;20589;-69
2022/08/26 12:36:26;;;;;;;15.30;13.90;;;23.00;99.90;;;;;;5048576;28;21377;-69
2022/08/26 12:38:54;;;;;;;15.30;13.80;;;23.10;99.90;;;;;;5049590;28;20465;-68
2022/08/26 12:41:47;;;;;;;14.60;13.63;;;23.10;99.90;;;;;;5048394;28;21149;-67
2022/08/26 12:44:35;;;;;;;15.53;14.03;;;23.00;99.90;;;;;;5049864;28;20473;-68
2022/08/26 12:47:04;;;;;;;17.73;14.27;;;22.80;99.90;;;;;;5049975;28;20459;-69
2022/08/26 12:49:31;;;;;;;15.33;13.30;;;22.70;99.90;;;;;;5049490;28;20549;-67
2022/08/26 12:52:00;;;;;;;14.03;12.83;;;22.60;99.90;;;;;;5049374;28;20909;-68